createdAt,value
2023-04-14T00:00:10.585Z,37.4
2023-04-14T00:01:10.422Z,38.6
2023-04-14T00:02:10.499Z,39.5
2023-04-14T00:03:10.660Z,40.3
2023-04-14T00:04:10.567Z,36.5
2023-04-14T00:05:10.477Z,36.0
2023-04-14T00:06:10.339Z,38.5
2023-04-14T00:07:10.398Z,38.2
2023-04-14T00:08:10.537Z,35.5
2023-04-14T00:09:10.387Z,37.1
2023-04-14T00:10:10.353Z,35.8
2023-04-14T00:11:10.348Z,36.9
2023-04-14T00:12:10.437Z,36.5
2023-04-14T00:13:10.344Z,38.7
2023-04-14T00:14:10.382Z,38.3
2023-04-14T00:15:10.458Z,36.2
2023-04-14T00:16:10.395Z,36.5
2023-04-14T00:17:10.597Z,37.4
2023-04-14T00:18:10.367Z,38.6
2023-04-14T00:19:10.598Z,39.2
2023-04-14T00:20:10.361Z,39.3
2023-04-14T00:21:10.403Z,38.5
2023-04-14T00:22:10.346Z,41.2
2023-04-14T00:23:10.402Z,39.4
2023-04-14T00:24:10.328Z,38.2
2023-04-14T00:25:10.398Z,39.2
2023-04-14T00:26:10.325Z,36.4
2023-04-14T00:27:10.301Z,36.9
2023-04-14T00:28:10.371Z,38.1
2023-04-14T00:29:10.336Z,36.7
2023-04-14T00:30:10.560Z,39.4
2023-04-14T00:31:10.356Z,36.0
2023-04-14T00:32:10.373Z,40.2
2023-04-14T00:33:10.303Z,39.8
2023-04-14T00:34:10.333Z,36.2
2023-04-14T00:35:10.361Z,36.1
2023-04-14T00:36:10.374Z,38.0
2023-04-14T00:37:10.330Z,39.3
2023-04-14T00:38:10.322Z,38.8
2023-04-14T00:39:10.369Z,40.8
2023-04-14T00:40:10.341Z,44.3
2023-04-14T00:41:10.480Z,39.2
2023-04-14T00:42:10.394Z,40.0
2023-04-14T00:43:10.368Z,42.7
2023-04-14T00:44:10.282Z,40.3
2023-04-14T00:45:10.322Z,42.6
2023-04-14T00:46:10.366Z,42.2
2023-04-14T00:47:10.278Z,40.7
2023-04-14T00:48:10.292Z,39.5
2023-04-14T00:49:10.298Z,39.5
2023-04-14T00:50:10.322Z,41.3
2023-04-14T00:51:10.315Z,39.6
2023-04-14T00:52:10.299Z,39.7
2023-04-14T00:53:10.352Z,44.5
2023-04-14T00:54:10.308Z,43.4
2023-04-14T00:55:10.302Z,43.8
2023-04-14T00:56:10.295Z,43.5
2023-04-14T00:57:10.290Z,44.8
2023-04-14T00:58:10.269Z,48.4
2023-04-14T00:59:10.336Z,44.8
2023-04-14T01:00:10.537Z,45.1
2023-04-14T01:01:10.269Z,45.0
2023-04-14T01:02:10.434Z,43.2
2023-04-14T01:03:11.335Z,47.0
2023-04-14T01:04:10.613Z,43.7
2023-04-14T01:05:10.439Z,46.2
2023-04-14T01:06:10.306Z,46.8
2023-04-14T01:07:11.378Z,43.9
2023-04-14T01:08:10.254Z,43.9
2023-04-14T01:09:10.258Z,45.5
2023-04-14T01:10:10.219Z,47.0
2023-04-14T01:11:10.277Z,46.6
2023-04-14T01:12:10.236Z,45.9
2023-04-14T01:13:10.336Z,47.4
2023-04-14T01:14:10.215Z,47.0
2023-04-14T01:15:10.274Z,49.8
2023-04-14T01:16:10.373Z,47.2
2023-04-14T01:17:10.241Z,43.6
2023-04-14T01:18:10.242Z,47.5
2023-04-14T01:19:10.242Z,45.2
2023-04-14T01:20:10.256Z,45.8
2023-04-14T01:21:10.229Z,47.1
2023-04-14T01:22:10.231Z,46.2
2023-04-14T01:23:10.263Z,48.4
2023-04-14T01:24:10.439Z,46.3
2023-04-14T01:25:10.188Z,48.1
2023-04-14T01:26:10.193Z,52.1
2023-04-14T01:27:10.224Z,49.9
2023-04-14T01:28:10.262Z,52.4
2023-04-14T01:29:10.246Z,48.2
2023-04-14T01:30:10.304Z,48.4
2023-04-14T01:31:10.197Z,50.0
2023-04-14T01:32:10.238Z,48.9
2023-04-14T01:33:10.418Z,51.1
2023-04-14T01:34:10.272Z,49.9
2023-04-14T01:35:10.397Z,49.8
2023-04-14T01:36:10.196Z,54.3
2023-04-14T01:37:10.223Z,51.8
2023-04-14T01:38:10.239Z,53.3
2023-04-14T01:39:10.225Z,51.3
2023-04-14T01:40:10.184Z,48.5
2023-04-14T01:41:10.194Z,52.4
2023-04-14T01:42:10.222Z,48.1
2023-04-14T01:43:10.163Z,50.2
2023-04-14T01:44:10.208Z,51.3
2023-04-14T01:45:10.244Z,52.1
2023-04-14T01:46:10.521Z,50.2
2023-04-14T01:47:10.213Z,50.9
2023-04-14T01:48:10.329Z,47.7
2023-04-14T01:49:10.352Z,51.6
2023-04-14T01:50:10.292Z,49.5
2023-04-14T01:51:10.244Z,50.9
2023-04-14T01:52:10.282Z,49.3
2023-04-14T01:53:11.365Z,49.4
2023-04-14T01:54:10.236Z,52.9
2023-04-14T01:55:10.157Z,50.2
2023-04-14T01:56:10.265Z,48.8
2023-04-14T01:57:10.766Z,52.0
2023-04-14T01:58:10.176Z,51.3
2023-04-14T01:59:10.192Z,48.3
2023-04-14T02:00:10.227Z,48.9
2023-04-14T02:01:10.267Z,46.9
2023-04-14T02:02:10.286Z,48.2
2023-04-14T02:03:10.501Z,48.8
2023-04-14T02:04:10.236Z,46.3
2023-04-14T02:05:10.190Z,47.0
2023-04-14T02:06:10.132Z,51.6
2023-04-14T02:07:10.178Z,48.7
2023-04-14T02:08:10.284Z,48.6
2023-04-14T02:09:10.212Z,45.6
2023-04-14T02:10:10.209Z,47.9
2023-04-14T02:11:10.115Z,44.7
2023-04-14T02:12:10.153Z,45.7
2023-04-14T02:13:10.113Z,45.2
2023-04-14T02:14:10.125Z,45.4
2023-04-14T02:15:10.187Z,43.4
2023-04-14T02:16:10.201Z,43.9
2023-04-14T02:17:10.131Z,43.9
2023-04-14T02:18:10.132Z,43.4
2023-04-14T02:19:10.292Z,45.2
2023-04-14T02:20:10.112Z,43.1
2023-04-14T02:21:10.159Z,44.8
2023-04-14T02:22:10.115Z,42.6
2023-04-14T02:23:10.171Z,41.5
2023-04-14T02:24:10.076Z,41.3
2023-04-14T02:25:10.079Z,47.6
2023-04-14T02:26:10.151Z,43.0
2023-04-14T02:27:10.078Z,40.6
2023-04-14T02:28:10.121Z,41.0
2023-04-14T02:29:10.178Z,37.8
2023-04-14T02:30:10.248Z,40.6
2023-04-14T02:31:10.153Z,36.4
2023-04-14T02:32:10.097Z,39.0
2023-04-14T02:33:10.210Z,38.4
2023-04-14T02:34:10.100Z,39.0
2023-04-14T02:35:10.119Z,39.3
2023-04-14T02:36:10.096Z,36.1
2023-04-14T02:37:10.078Z,39.4
2023-04-14T02:38:10.054Z,33.6
2023-04-14T02:39:10.073Z,33.5
2023-04-14T02:40:10.132Z,36.9
2023-04-14T02:41:10.332Z,35.2
2023-04-14T02:42:10.080Z,34.2
2023-04-14T02:43:10.028Z,32.0
2023-04-14T02:44:10.074Z,37.4
2023-04-14T02:45:10.180Z,33.7
2023-04-14T02:46:10.149Z,33.0
2023-04-14T02:47:10.083Z,31.6
2023-04-14T02:48:10.058Z,34.3
2023-04-14T02:49:11.113Z,30.8
2023-04-14T02:50:10.088Z,34.1
2023-04-14T02:51:10.071Z,31.3
2023-04-14T02:52:10.267Z,29.2
2023-04-14T02:53:10.057Z,30.7
2023-04-14T02:54:10.042Z,29.2
2023-04-14T02:55:10.053Z,31.3
2023-04-14T02:56:10.139Z,30.6
2023-04-14T02:57:10.088Z,29.8
2023-04-14T02:58:10.083Z,28.8
2023-04-14T02:59:10.080Z,28.5
2023-04-14T03:00:10.060Z,30.2
2023-04-14T03:01:10.118Z,27.4
2023-04-14T03:02:10.163Z,28.8
2023-04-14T03:03:10.383Z,31.2
2023-04-14T03:04:10.070Z,31.1
2023-04-14T03:05:10.059Z,27.4
2023-04-14T03:06:10.195Z,27.7
2023-04-14T03:07:10.450Z,30.6
2023-04-14T03:08:10.295Z,29.0
2023-04-14T03:09:10.072Z,25.8
2023-04-14T03:10:10.109Z,28.8
2023-04-14T03:11:10.032Z,31.2
2023-04-14T03:12:10.055Z,30.9
2023-04-14T03:13:10.047Z,31.4
2023-04-14T03:14:10.207Z,25.9
2023-04-14T03:15:10.029Z,30.2
2023-04-14T03:16:10.054Z,29.8
2023-04-14T03:17:09.986Z,30.2
2023-04-14T03:18:10.082Z,28.7
2023-04-14T03:19:10.023Z,30.4
2023-04-14T03:20:10.008Z,28.8
2023-04-14T03:21:10.011Z,28.1
2023-04-14T03:22:09.964Z,28.7
2023-04-14T03:23:10.060Z,28.1
2023-04-14T03:24:10.019Z,26.8
2023-04-14T03:25:10.137Z,27.7
2023-04-14T03:26:10.032Z,27.5
2023-04-14T03:27:09.997Z,28.2
2023-04-14T03:28:09.976Z,27.0
2023-04-14T03:29:10.049Z,28.0
2023-04-14T03:30:09.974Z,27.5
2023-04-14T03:31:10.000Z,27.7
2023-04-14T03:32:10.000Z,26.7
2023-04-14T03:33:09.998Z,28.6
2023-04-14T03:34:10.084Z,27.3
2023-04-14T03:35:09.959Z,27.2
2023-04-14T03:36:10.107Z,27.7
2023-04-14T03:37:09.938Z,25.2
2023-04-14T03:38:09.982Z,26.2
2023-04-14T03:39:10.059Z,27.5
2023-04-14T03:40:10.028Z,26.4
2023-04-14T03:41:09.991Z,26.2
2023-04-14T03:42:10.010Z,22.9
2023-04-14T03:43:09.976Z,24.8
2023-04-14T03:44:10.998Z,26.2
2023-04-14T03:45:10.011Z,26.8
2023-04-14T03:46:09.971Z,24.6
2023-04-14T03:47:11.409Z,23.5
2023-04-14T03:48:10.011Z,24.6
2023-04-14T03:49:09.958Z,25.4
2023-04-14T03:50:09.982Z,25.3
2023-04-14T03:51:09.921Z,24.5
2023-04-14T03:52:09.945Z,24.1
2023-04-14T03:53:09.970Z,23.5
2023-04-14T03:54:09.938Z,25.9
2023-04-14T03:55:09.953Z,25.0
2023-04-14T03:56:09.942Z,24.2
2023-04-14T03:57:09.930Z,25.4
2023-04-14T03:58:09.967Z,25.6
2023-04-14T03:59:10.203Z,24.4
2023-04-14T04:00:09.950Z,23.3
2023-04-14T04:01:09.942Z,24.4
2023-04-14T04:02:09.993Z,23.6
2023-04-14T04:03:10.251Z,26.3
2023-04-14T04:04:10.111Z,27.4
2023-04-14T04:05:10.045Z,25.8
2023-04-14T04:06:09.910Z,24.7
2023-04-14T04:07:10.003Z,26.3
2023-04-14T04:08:10.078Z,28.2
2023-04-14T04:09:10.053Z,26.1
2023-04-14T04:10:09.908Z,28.1
2023-04-14T04:11:09.897Z,28.1
2023-04-14T04:12:09.936Z,27.1
2023-04-14T04:13:09.921Z,28.9
2023-04-14T04:14:09.983Z,28.9
2023-04-14T04:15:09.978Z,27.1
2023-04-14T04:16:09.985Z,25.7
2023-04-14T04:17:09.943Z,26.2
2023-04-14T04:18:09.988Z,26.1
2023-04-14T04:19:09.924Z,25.0
2023-04-14T04:20:09.919Z,25.4
2023-04-14T04:21:09.958Z,27.1
2023-04-14T04:22:09.918Z,27.1
2023-04-14T04:23:09.911Z,26.7
2023-04-14T04:24:09.881Z,27.2
2023-04-14T04:25:09.885Z,26.7
2023-04-14T04:26:09.918Z,25.9
2023-04-14T04:27:17.156Z,26.4
2023-04-14T04:28:09.863Z,24.8
2023-04-14T04:29:09.914Z,22.8
2023-04-14T04:30:09.989Z,23.9
2023-04-14T04:31:09.885Z,30.6
2023-04-14T04:32:09.974Z,23.3
2023-04-14T04:33:09.943Z,25.4
2023-04-14T04:34:09.885Z,24.8
2023-04-14T04:35:09.884Z,26.3
2023-04-14T04:36:09.890Z,24.0
2023-04-14T04:37:09.896Z,25.4
2023-04-14T04:38:09.891Z,25.5
2023-04-14T04:39:09.832Z,24.4
2023-04-14T04:40:09.864Z,25.5
2023-04-14T04:41:10.007Z,25.5
2023-04-14T04:42:09.898Z,26.1
2023-04-14T04:43:09.906Z,25.3
2023-04-14T04:44:09.886Z,26.4
2023-04-14T04:45:09.911Z,24.8
2023-04-14T04:46:09.898Z,27.1
2023-04-14T04:47:09.836Z,26.8
2023-04-14T04:48:09.917Z,26.4
2023-04-14T04:49:09.863Z,25.6
2023-04-14T04:50:09.876Z,27.6
2023-04-14T04:51:09.813Z,26.9
2023-04-14T04:52:09.983Z,26.2
2023-04-14T04:53:09.849Z,27.7
2023-04-14T04:54:09.833Z,28.7
2023-04-14T04:55:09.882Z,24.6
2023-04-14T04:56:09.818Z,27.9
2023-04-14T04:57:11.203Z,27.8
2023-04-14T04:58:09.904Z,27.6
2023-04-14T04:59:09.822Z,25.3
2023-04-14T05:00:09.889Z,28.2
2023-04-14T05:01:09.899Z,25.2
2023-04-14T05:02:09.843Z,27.9
2023-04-14T05:03:10.094Z,28.2
2023-04-14T05:04:09.910Z,28.5
2023-04-14T05:05:09.867Z,28.6
2023-04-14T05:06:09.889Z,27.9
2023-04-14T05:07:09.831Z,28.3
2023-04-14T05:08:10.401Z,29.3
2023-04-14T05:09:09.811Z,29.0
2023-04-14T05:10:09.828Z,30.3
2023-04-14T05:11:09.901Z,31.2
2023-04-14T05:12:09.829Z,30.9
2023-04-14T05:13:09.823Z,33.5
2023-04-14T05:14:09.981Z,28.1
2023-04-14T05:15:09.821Z,30.5
2023-04-14T05:16:09.823Z,28.4
2023-04-14T05:17:09.809Z,31.4
2023-04-14T05:18:09.827Z,30.0
2023-04-14T05:19:09.834Z,26.3
2023-04-14T05:20:09.826Z,30.0
2023-04-14T05:21:09.813Z,31.8
2023-04-14T05:22:09.798Z,28.7
2023-04-14T05:23:09.802Z,33.7
2023-04-14T05:24:09.878Z,30.3
2023-04-14T05:25:09.920Z,28.3
2023-04-14T05:26:31.327Z,28.5
2023-04-14T05:27:13.591Z,38.5
2023-04-14T05:28:09.827Z,32.0
2023-04-14T05:29:09.883Z,34.0
2023-04-14T05:30:09.804Z,29.6
2023-04-14T05:31:09.818Z,31.2
2023-04-14T05:32:09.742Z,30.4
2023-04-14T05:33:09.753Z,34.3
2023-04-14T05:34:09.860Z,32.2
2023-04-14T05:35:09.851Z,32.6
2023-04-14T05:36:09.929Z,35.3
2023-04-14T05:37:09.776Z,35.3
2023-04-14T05:38:09.793Z,33.0
2023-04-14T05:39:09.923Z,35.0
2023-04-14T05:40:14.263Z,33.9
2023-04-14T05:41:09.829Z,37.3
2023-04-14T05:42:09.798Z,41.4
2023-04-14T05:43:09.779Z,39.7
2023-04-14T05:44:09.742Z,45.0
2023-04-14T05:45:09.986Z,41.2
2023-04-14T05:46:09.793Z,45.7
2023-04-14T05:47:09.899Z,43.7
2023-04-14T05:48:09.797Z,48.6
2023-04-14T05:49:09.793Z,48.5
2023-04-14T05:50:09.756Z,43.3
2023-04-14T05:51:09.727Z,46.0
2023-04-14T05:52:09.762Z,43.1
2023-04-14T05:53:09.761Z,47.0
2023-04-14T05:54:09.780Z,46.2
2023-04-14T05:55:09.775Z,47.3
2023-04-14T05:56:09.744Z,48.9
2023-04-14T05:57:09.835Z,48.6
2023-04-14T05:58:09.999Z,47.2
2023-04-14T05:59:09.796Z,50.6
2023-04-14T06:00:09.784Z,49.3
2023-04-14T06:01:09.754Z,50.6
2023-04-14T06:02:09.855Z,48.1
2023-04-14T06:03:09.893Z,48.0
2023-04-14T06:04:10.147Z,47.5
2023-04-14T06:05:10.005Z,52.4
2023-04-14T06:06:09.742Z,46.2
2023-04-14T06:07:09.721Z,47.5
2023-04-14T06:08:09.745Z,48.5
2023-04-14T06:09:09.973Z,52.3
2023-04-14T06:10:09.915Z,47.9
2023-04-14T06:11:09.989Z,46.4
2023-04-14T06:12:09.697Z,50.4
2023-04-14T06:13:09.821Z,50.6
2023-04-14T06:14:09.749Z,51.2
2023-04-14T06:15:09.727Z,50.7
2023-04-14T06:16:09.755Z,50.0
2023-04-14T06:17:09.684Z,51.7
2023-04-14T06:18:09.747Z,49.7
2023-04-14T06:19:09.780Z,48.3
2023-04-14T06:20:09.692Z,48.6
2023-04-14T06:21:09.686Z,49.8
2023-04-14T06:22:09.706Z,53.0
2023-04-14T06:23:09.701Z,50.8
2023-04-14T06:24:09.799Z,49.6
2023-04-14T06:25:09.766Z,47.8
2023-04-14T06:26:09.703Z,54.6
2023-04-14T06:27:09.791Z,51.9
2023-04-14T06:28:09.738Z,51.2
2023-04-14T06:29:09.750Z,48.7
2023-04-14T06:30:09.731Z,50.7
2023-04-14T06:31:09.816Z,47.5
2023-04-14T06:32:09.791Z,49.7
2023-04-14T06:33:09.697Z,52.3
2023-04-14T06:34:09.849Z,48.1
2023-04-14T06:35:16.337Z,47.0
2023-04-14T06:36:09.689Z,45.8
2023-04-14T06:37:09.737Z,50.3
2023-04-14T06:38:09.783Z,51.0
2023-04-14T06:39:09.666Z,49.4
2023-04-14T06:40:09.652Z,47.8
2023-04-14T06:41:09.662Z,47.4
2023-04-14T06:42:09.790Z,45.8
2023-04-14T06:43:09.802Z,45.7
2023-04-14T06:44:09.687Z,50.2
2023-04-14T06:45:09.723Z,47.1
2023-04-14T06:46:09.719Z,53.2
2023-04-14T06:47:09.628Z,48.3
2023-04-14T06:48:09.761Z,51.5
2023-04-14T06:49:09.688Z,49.1
2023-04-14T06:50:09.682Z,51.6
2023-04-14T06:51:09.639Z,49.8
2023-04-14T06:52:09.693Z,50.5
2023-04-14T06:53:09.650Z,49.5
2023-04-14T06:54:09.709Z,48.9
2023-04-14T06:55:09.640Z,51.4
2023-04-14T06:56:09.643Z,47.1
2023-04-14T06:57:09.734Z,50.6
2023-04-14T06:58:09.676Z,49.8
2023-04-14T06:59:09.733Z,48.9
2023-04-14T07:00:09.694Z,49.4
2023-04-14T07:01:09.682Z,47.7
2023-04-14T07:02:09.732Z,46.1
2023-04-14T07:03:09.753Z,47.4
2023-04-14T07:04:09.743Z,46.7
2023-04-14T07:05:09.765Z,44.4
2023-04-14T07:06:09.625Z,41.5
2023-04-14T07:07:09.636Z,41.3
2023-04-14T07:08:09.657Z,42.0
2023-04-14T07:09:09.727Z,41.8
2023-04-14T07:10:09.789Z,41.9
2023-04-14T07:11:09.613Z,42.2
2023-04-14T07:12:09.592Z,42.0
2023-04-14T07:13:09.717Z,42.2
2023-04-14T07:14:09.697Z,40.8
2023-04-14T07:15:09.591Z,39.8
2023-04-14T07:16:09.682Z,45.6
2023-04-14T07:17:09.611Z,42.6
2023-04-14T07:18:09.761Z,40.0
2023-04-14T07:19:09.800Z,38.9
2023-04-14T07:20:09.590Z,43.5
2023-04-14T07:21:09.608Z,45.6
2023-04-14T07:22:09.626Z,41.5
2023-04-14T07:23:09.633Z,39.5
2023-04-14T07:24:09.696Z,38.8
2023-04-14T07:25:09.689Z,45.3
2023-04-14T07:26:09.766Z,40.0
2023-04-14T07:27:09.634Z,40.3
2023-04-14T07:28:09.620Z,37.9
2023-04-14T07:29:09.674Z,33.4
2023-04-14T07:30:09.638Z,35.9
2023-04-14T07:31:09.676Z,32.9
2023-04-14T07:32:09.679Z,33.5
2023-04-14T07:33:09.661Z,31.9
2023-04-14T07:34:10.978Z,34.0
2023-04-14T07:35:09.727Z,32.7
2023-04-14T07:36:09.659Z,28.5
2023-04-14T07:37:09.730Z,26.3
2023-04-14T07:38:09.671Z,26.0
2023-04-14T07:39:12.800Z,23.3
2023-04-14T07:40:09.595Z,24.9
2023-04-14T07:41:09.594Z,25.9
2023-04-14T07:42:09.628Z,23.8
2023-04-14T07:43:09.808Z,27.0
2023-04-14T07:44:09.656Z,23.6
2023-04-14T07:45:09.670Z,22.2
2023-04-14T07:46:09.556Z,22.0
2023-04-14T07:47:12.226Z,24.4
2023-04-14T07:48:09.653Z,20.8
2023-04-14T07:49:09.613Z,21.9
2023-04-14T07:50:09.736Z,21.1
2023-04-14T07:51:09.560Z,21.5
2023-04-14T07:52:09.551Z,22.6
2023-04-14T07:53:10.938Z,19.4
2023-04-14T07:54:09.551Z,23.1
2023-04-14T07:55:09.597Z,19.4
2023-04-14T07:56:09.533Z,19.7
2023-04-14T07:57:09.552Z,19.7
2023-04-14T07:58:09.746Z,20.3
2023-04-14T07:59:09.762Z,16.7
2023-04-14T08:00:09.778Z,20.0
2023-04-14T08:01:09.513Z,19.2
2023-04-14T08:02:09.659Z,18.5
2023-04-14T08:03:09.741Z,19.1
2023-04-14T08:04:09.779Z,17.8
2023-04-14T08:05:09.617Z,21.5
2023-04-14T08:06:09.511Z,21.3
2023-04-14T08:07:09.514Z,21.5
2023-04-14T08:08:09.526Z,20.6
2023-04-14T08:09:09.516Z,20.2
2023-04-14T08:10:09.518Z,19.8
2023-04-14T08:11:09.543Z,19.5
2023-04-14T08:12:09.540Z,20.6
2023-04-14T08:13:10.961Z,20.4
2023-04-14T08:14:09.511Z,19.8
2023-04-14T08:15:09.496Z,21.0
2023-04-14T08:16:09.561Z,19.8
2023-04-14T08:17:32.329Z,17.3
2023-04-14T08:18:09.488Z,16.7
2023-04-14T08:19:09.505Z,16.6
2023-04-14T08:20:09.518Z,18.1
2023-04-14T08:21:09.622Z,15.5
2023-04-14T08:22:09.548Z,16.8
2023-04-14T08:23:09.510Z,18.8
2023-04-14T08:24:09.491Z,16.9
2023-04-14T08:25:09.519Z,15.1
2023-04-14T08:26:09.522Z,17.5
2023-04-14T08:27:09.515Z,16.0
2023-04-14T08:28:09.537Z,16.0
2023-04-14T08:29:09.551Z,15.5
2023-04-14T08:30:10.967Z,14.3
2023-04-14T08:31:09.505Z,15.0
2023-04-14T08:32:09.729Z,14.1
2023-04-14T08:33:09.603Z,13.2
2023-04-14T08:34:09.518Z,14.0
2023-04-14T08:35:39.631Z,11.9
2023-04-14T08:36:09.483Z,12.5
2023-04-14T08:37:13.679Z,12.8
2023-04-14T08:38:09.539Z,12.4
2023-04-14T08:39:09.469Z,10.8
2023-04-14T08:40:09.497Z,12.4
2023-04-14T08:41:09.503Z,15.8
2023-04-14T08:42:09.506Z,11.8
2023-04-14T08:43:13.185Z,10.4
2023-04-14T08:44:09.477Z,10.6
2023-04-14T08:45:09.479Z,9.9
2023-04-14T08:46:09.812Z,13.3
2023-04-14T08:47:09.462Z,11.7
2023-04-14T08:48:32.403Z,11.1
2023-04-14T08:49:09.476Z,14.1
2023-04-14T08:50:09.488Z,10.9
2023-04-14T08:51:09.617Z,10.0
2023-04-14T08:52:09.552Z,13.9
2023-04-14T08:53:09.490Z,10.4
2023-04-14T08:54:09.481Z,11.7
2023-04-14T08:55:09.473Z,10.2
2023-04-14T08:56:09.518Z,10.2
2023-04-14T08:57:09.476Z,10.0
2023-04-14T08:58:09.505Z,12.0
2023-04-14T08:59:09.576Z,10.0
2023-04-14T09:00:09.524Z,8.6
2023-04-14T09:01:09.534Z,8.0
2023-04-14T09:02:09.623Z,7.9
2023-04-14T09:03:09.985Z,8.0
2023-04-14T09:04:10.150Z,9.7
2023-04-14T09:05:09.503Z,8.4
2023-04-14T09:06:09.509Z,14.6
2023-04-14T09:07:09.425Z,10.6
2023-04-14T09:08:09.461Z,11.7
2023-04-14T09:09:09.613Z,12.8
2023-04-14T09:10:17.893Z,14.3
2023-04-14T09:11:09.437Z,9.8
2023-04-14T09:12:09.448Z,10.5
2023-04-14T09:13:09.405Z,9.3
2023-04-14T09:14:09.447Z,10.0
2023-04-14T09:15:09.569Z,27.0
2023-04-14T09:16:11.981Z,18.7
2023-04-14T09:17:09.523Z,19.6
2023-04-14T09:19:09.456Z,14.2
2023-04-14T09:20:35.654Z,14.8
2023-04-14T09:21:30.471Z,9.1
2023-04-14T09:22:09.447Z,9.1
2023-04-14T09:23:09.710Z,15.4
2023-04-14T09:24:12.021Z,11.6
2023-04-14T09:25:09.419Z,9.7
2023-04-14T09:26:09.461Z,8.9
2023-04-14T09:28:09.435Z,15.2
2023-04-14T09:29:09.563Z,12.4
2023-04-14T09:30:09.441Z,10.3
2023-04-14T09:31:09.461Z,12.3
2023-04-14T09:32:09.493Z,10.4
2023-04-14T09:33:09.474Z,13.4
2023-04-14T09:34:09.465Z,12.7
2023-04-14T09:35:09.373Z,9.4
2023-04-14T09:36:09.497Z,11.1
2023-04-14T09:37:09.392Z,14.8
2023-04-14T09:38:09.636Z,11.9
2023-04-14T09:39:09.444Z,14.4
2023-04-14T09:40:09.402Z,16.4
2023-04-14T09:41:09.426Z,13.4
2023-04-14T09:42:09.409Z,10.9
2023-04-14T09:43:09.400Z,9.6
2023-04-14T09:44:09.478Z,9.8
2023-04-14T09:45:09.435Z,11.8
2023-04-14T09:46:13.084Z,10.3
2023-04-14T09:47:09.394Z,9.4
2023-04-14T09:48:09.374Z,9.2
2023-04-14T09:49:09.515Z,9.1
2023-04-14T09:50:09.394Z,8.7
2023-04-14T09:51:09.369Z,9.2
2023-04-14T09:52:09.438Z,10.3
2023-04-14T09:53:09.344Z,7.8
2023-04-14T09:54:09.351Z,9.5
2023-04-14T09:55:09.341Z,8.9
2023-04-14T09:56:09.393Z,7.8
2023-04-14T09:57:09.383Z,6.7
2023-04-14T09:58:09.349Z,9.3
2023-04-14T09:59:09.431Z,7.7
2023-04-14T10:00:09.559Z,9.2
2023-04-14T10:01:09.364Z,10.0
2023-04-14T10:02:09.521Z,10.6
2023-04-14T10:03:09.505Z,9.0
2023-04-14T10:04:09.393Z,8.7
2023-04-14T10:05:09.453Z,10.5
2023-04-14T10:06:09.390Z,7.4
2023-04-14T10:07:09.344Z,7.6
2023-04-14T10:08:10.486Z,9.2
2023-04-14T10:09:09.362Z,10.3
2023-04-14T10:10:09.328Z,8.8
2023-04-14T10:11:09.533Z,9.8
2023-04-14T10:12:10.078Z,9.5
2023-04-14T10:13:09.332Z,7.3
2023-04-14T10:14:09.351Z,7.0
2023-04-14T10:15:09.312Z,11.8
2023-04-14T10:16:09.511Z,7.5
2023-04-14T10:17:09.372Z,7.5
2023-04-14T10:18:09.368Z,7.4
2023-04-14T10:19:09.354Z,7.4
2023-04-14T10:20:09.571Z,8.5
2023-04-14T10:21:09.310Z,5.8
2023-04-14T10:22:09.544Z,8.6
2023-04-14T10:23:09.310Z,8.0
2023-04-14T10:24:09.375Z,5.7
2023-04-14T10:25:09.324Z,5.9
2023-04-14T10:26:09.359Z,7.4
2023-04-14T10:27:09.336Z,9.5
2023-04-14T10:28:09.302Z,6.8
2023-04-14T10:29:09.312Z,8.1
2023-04-14T10:30:09.324Z,7.5
2023-04-14T10:31:09.398Z,7.5
2023-04-14T10:32:09.389Z,6.5
2023-04-14T10:33:09.667Z,7.7
2023-04-14T10:34:09.979Z,7.4
2023-04-14T10:35:09.397Z,8.6
2023-04-14T10:36:09.797Z,9.1
2023-04-14T10:37:09.599Z,8.0
2023-04-14T10:39:09.281Z,7.2
2023-04-14T10:40:09.351Z,8.0
2023-04-14T10:41:09.356Z,8.2
2023-04-14T10:42:09.293Z,6.5
2023-04-14T10:43:09.408Z,7.6
2023-04-14T10:44:09.355Z,7.9
2023-04-14T10:45:11.908Z,7.8
2023-04-14T10:46:09.551Z,7.8
2023-04-14T10:47:09.395Z,9.3
2023-04-14T10:48:09.501Z,9.5
2023-04-14T10:49:09.293Z,6.3
2023-04-14T10:50:09.303Z,7.3
2023-04-14T10:51:09.358Z,9.3
2023-04-14T10:52:09.307Z,10.9
2023-04-14T10:53:09.399Z,7.9
2023-04-14T10:54:09.387Z,8.1
2023-04-14T10:55:09.271Z,7.7
2023-04-14T10:56:09.452Z,6.6
2023-04-14T10:57:09.289Z,8.3
2023-04-14T10:58:09.337Z,7.9
2023-04-14T10:59:09.289Z,8.3
2023-04-14T11:00:09.299Z,7.3
2023-04-14T11:01:09.273Z,8.0
2023-04-14T11:02:09.328Z,8.0
2023-04-14T11:03:09.515Z,6.2
2023-04-14T11:04:09.483Z,7.9
2023-04-14T11:05:09.412Z,7.1
2023-04-14T11:06:09.279Z,6.2
2023-04-14T11:07:09.613Z,8.2
2023-04-14T11:08:09.318Z,7.3
2023-04-14T11:09:09.300Z,6.4
2023-04-14T11:10:09.332Z,8.1
2023-04-14T11:11:09.279Z,8.6
2023-04-14T11:12:09.293Z,7.2
2023-04-14T11:13:09.304Z,5.8
2023-04-14T11:14:09.318Z,7.8
2023-04-14T11:15:09.227Z,8.8
2023-04-14T11:16:09.278Z,6.0
2023-04-14T11:17:09.519Z,5.8
2023-04-14T11:18:09.592Z,6.1
2023-04-14T11:19:09.322Z,6.7
2023-04-14T11:20:09.250Z,6.0
2023-04-14T11:21:09.244Z,6.2
2023-04-14T11:22:09.243Z,5.9
2023-04-14T11:23:09.412Z,6.1
2023-04-14T11:24:09.296Z,6.7
2023-04-14T11:25:09.297Z,6.4
2023-04-14T11:26:09.268Z,5.4
2023-04-14T11:27:09.293Z,7.8
2023-04-14T11:28:09.409Z,8.3
2023-04-14T11:29:09.239Z,6.4
2023-04-14T11:30:09.228Z,8.8
2023-04-14T11:31:09.219Z,7.5
2023-04-14T11:32:09.271Z,6.4
2023-04-14T11:33:09.299Z,8.4
2023-04-14T11:34:09.275Z,10.2
2023-04-14T11:35:09.210Z,8.0
2023-04-14T11:36:09.215Z,9.0
2023-04-14T11:37:09.246Z,5.5
2023-04-14T11:38:09.236Z,7.0
2023-04-14T11:39:09.226Z,6.2
2023-04-14T11:40:09.481Z,5.4
2023-04-14T11:41:09.249Z,9.7
2023-04-14T11:42:09.225Z,6.7
2023-04-14T11:43:09.257Z,7.0
2023-04-14T11:44:09.275Z,6.5
2023-04-14T11:45:09.234Z,7.3
2023-04-14T11:46:09.288Z,6.4
2023-04-14T11:47:09.254Z,8.3
2023-04-14T11:48:09.213Z,6.0
2023-04-14T11:49:09.257Z,12.1
2023-04-14T11:50:09.350Z,10.6
2023-04-14T11:51:09.319Z,8.0
2023-04-14T11:52:09.278Z,9.8
2023-04-14T11:53:11.168Z,7.0
2023-04-14T11:54:09.287Z,7.0
2023-04-14T11:55:09.258Z,10.3
2023-04-14T11:56:09.396Z,8.8
2023-04-14T11:57:09.257Z,9.5
2023-04-14T11:58:09.199Z,5.8
2023-04-14T11:59:09.226Z,5.6
2023-04-14T12:00:09.313Z,7.1
2023-04-14T12:01:09.222Z,8.6
2023-04-14T12:02:09.781Z,7.0
2023-04-14T12:03:14.068Z,6.1
2023-04-14T12:04:09.357Z,6.7
2023-04-14T12:05:09.400Z,7.1
2023-04-14T12:06:10.298Z,7.4
2023-04-14T12:07:10.641Z,9.5
2023-04-14T12:08:12.171Z,8.5
2023-04-14T12:10:10.638Z,8.0
2023-04-14T12:11:19.704Z,9.4
2023-04-14T12:12:09.288Z,8.0
2023-04-14T12:13:10.558Z,11.0
2023-04-14T12:14:09.520Z,6.4
2023-04-14T12:15:13.743Z,6.0
2023-04-14T12:16:16.357Z,8.1
2023-04-14T12:18:14.010Z,6.7
2023-04-14T12:19:13.491Z,6.7
2023-04-14T12:21:17.601Z,7.7
2023-04-14T13:00:21.989Z,6.7
2023-04-14T13:01:21.942Z,6.2
2023-04-14T13:02:22.037Z,7.6
2023-04-14T13:03:22.073Z,9.1
2023-04-14T13:04:21.974Z,10.4
2023-04-14T13:05:21.950Z,6.1
2023-04-14T13:06:21.876Z,6.4
2023-04-14T13:07:21.859Z,5.1
2023-04-14T13:08:21.886Z,7.0
2023-04-14T13:09:21.837Z,5.8
2023-04-14T13:10:22.090Z,6.3
2023-04-14T13:11:21.834Z,5.3
2023-04-14T13:12:21.836Z,4.5
2023-04-14T13:13:21.891Z,6.7
2023-04-14T13:14:21.815Z,5.5
2023-04-14T13:16:09.508Z,6.7
2023-04-14T13:16:21.891Z,6.3
2023-04-14T13:17:21.961Z,9.1
2023-04-14T13:18:21.836Z,7.1
2023-04-14T13:19:21.868Z,5.9
2023-04-14T13:20:21.846Z,6.9
2023-04-14T13:21:22.011Z,7.2
2023-04-14T13:22:21.856Z,5.9
2023-04-14T13:23:21.833Z,5.5
2023-04-14T13:24:21.897Z,5.5
2023-04-14T13:25:21.817Z,5.0
2023-04-14T13:26:21.831Z,5.5
2023-04-14T13:27:21.841Z,5.7
2023-04-14T13:28:21.899Z,5.4
2023-04-14T13:29:21.870Z,6.3
2023-04-14T13:30:21.794Z,6.3
2023-04-14T13:31:21.916Z,6.8
2023-04-14T13:32:22.001Z,7.4
2023-04-14T13:33:21.772Z,5.5
2023-04-14T13:34:21.928Z,6.1
2023-04-14T13:35:21.795Z,7.6
2023-04-14T13:36:21.784Z,5.9
2023-04-14T13:37:21.811Z,7.0
2023-04-14T13:38:21.837Z,7.4
2023-04-14T13:39:21.791Z,6.8
2023-04-14T13:40:21.834Z,6.2
2023-04-14T13:41:21.795Z,5.9
2023-04-14T13:42:21.801Z,9.1
2023-04-14T13:43:21.925Z,6.9
2023-04-14T13:44:21.796Z,6.7
2023-04-14T13:45:21.847Z,6.3
2023-04-14T13:46:21.768Z,8.3
2023-04-14T13:47:21.763Z,6.7
2023-04-14T13:48:21.851Z,7.0
2023-04-14T13:49:21.834Z,5.7
2023-04-14T13:50:21.787Z,7.3
2023-04-14T13:51:21.815Z,5.8
2023-04-14T13:52:21.767Z,22.4
2023-04-14T13:53:21.814Z,22.5
2023-04-14T13:54:22.058Z,8.3
2023-04-14T13:55:21.762Z,8.4
2023-04-14T13:56:21.820Z,24.7
2023-04-14T13:57:22.050Z,10.4
2023-04-14T13:58:22.034Z,9.2
2023-04-14T13:59:21.819Z,8.0
2023-04-14T14:00:21.895Z,7.2
2023-04-14T14:01:21.871Z,8.4
2023-04-14T14:02:21.833Z,10.1
2023-04-14T14:03:21.984Z,9.2
2023-04-14T14:04:21.972Z,8.6
2023-04-14T14:05:21.907Z,8.3
2023-04-14T14:06:21.789Z,9.7
2023-04-14T14:07:21.787Z,21.7
2023-04-14T14:08:21.770Z,16.2
2023-04-14T14:09:21.812Z,16.3